createdAt,value
2022-09-09T00:01:11.728Z,99.90
2022-09-09T00:02:50.502Z,99.90
2022-09-09T00:04:29.369Z,99.90
2022-09-09T00:06:10.629Z,99.90
2022-09-09T00:07:49.374Z,99.90
2022-09-09T00:09:28.199Z,99.90
2022-09-09T00:11:06.180Z,99.90
2022-09-09T00:12:50.049Z,99.90
2022-09-09T00:14:33.831Z,99.90
2022-09-09T00:16:15.068Z,99.90
2022-09-09T00:17:53.319Z,99.90
2022-09-09T00:19:32.188Z,99.90
2022-09-09T00:21:09.914Z,99.90
2022-09-09T00:22:48.986Z,99.90
2022-09-09T00:24:30.391Z,99.90
2022-09-09T00:26:08.651Z,99.90
2022-09-09T00:27:46.099Z,99.90
2022-09-09T00:29:30.942Z,99.90
2022-09-09T00:31:13.382Z,99.90
2022-09-09T00:32:47.355Z,99.90
2022-09-09T00:34:23.839Z,99.90
2022-09-09T00:35:59.673Z,99.90
2022-09-09T00:37:34.539Z,99.90
2022-09-09T00:39:12.113Z,99.90
2022-09-09T00:40:52.149Z,99.90
2022-09-09T00:42:27.593Z,99.90
2022-09-09T00:44:08.971Z,99.90
2022-09-09T00:46:08.323Z,99.90
2022-09-09T00:47:46.895Z,99.90
2022-09-09T00:49:34.029Z,99.90
2022-09-09T00:51:15.996Z,99.90
2022-09-09T00:52:58.584Z,99.90
2022-09-09T00:54:42.282Z,99.90
2022-09-09T00:56:21.680Z,99.90
2022-09-09T00:57:55.329Z,99.90
2022-09-09T00:59:37.323Z,99.90
2022-09-09T01:01:14.055Z,99.90
2022-09-09T01:03:03.265Z,99.90
2022-09-09T01:04:38.770Z,99.90
2022-09-09T01:06:18.464Z,99.90
2022-09-09T01:07:55.123Z,99.90
2022-09-09T01:09:40.383Z,99.90
2022-09-09T01:11:23.790Z,99.90
2022-09-09T01:13:00.636Z,99.90
2022-09-09T01:14:43.326Z,99.90
2022-09-09T01:16:17.930Z,99.90
2022-09-09T01:18:03.342Z,99.90
2022-09-09T01:19:51.246Z,99.90
2022-09-09T01:21:34.860Z,99.90
2022-09-09T01:23:36.682Z,99.90
2022-09-09T01:25:33.682Z,99.90
2022-09-09T01:27:16.143Z,99.90
2022-09-09T01:28:53.515Z,99.90
2022-09-09T01:30:30.621Z,99.90
2022-09-09T01:32:39.979Z,99.90
2022-09-09T01:34:14.913Z,99.90
2022-09-09T01:35:55.359Z,99.90
2022-09-09T01:37:30.330Z,99.90
2022-09-09T01:39:03.938Z,99.90
2022-09-09T01:40:37.435Z,99.90
2022-09-09T01:42:13.260Z,99.90
2022-09-09T01:43:47.520Z,99.90
2022-09-09T01:45:20.868Z,99.90
2022-09-09T01:46:53.932Z,99.90
2022-09-09T01:48:28.446Z,99.90
2022-09-09T01:50:16.987Z,99.90
2022-09-09T01:51:54.047Z,99.90
2022-09-09T01:53:32.070Z,99.90
2022-09-09T01:55:06.295Z,99.90
2022-09-09T01:56:55.019Z,99.90
2022-09-09T01:58:35.784Z,99.90
2022-09-09T02:00:13.453Z,99.90
2022-09-09T02:02:02.110Z,99.90
2022-09-09T02:03:37.359Z,99.90
2022-09-09T02:05:27.691Z,99.90
2022-09-09T02:07:02.666Z,99.90
2022-09-09T02:08:45.549Z,99.90
2022-09-09T02:10:22.600Z,99.90
2022-09-09T02:12:13.919Z,99.90
2022-09-09T02:14:00.072Z,99.90
2022-09-09T02:15:40.829Z,99.90
2022-09-09T02:17:19.242Z,99.90
2022-09-09T02:19:18.043Z,99.90
2022-09-09T02:21:14.887Z,99.90
2022-09-09T02:22:50.587Z,99.90
2022-09-09T02:24:28.244Z,99.90
2022-09-09T02:26:20.492Z,99.90
2022-09-09T02:27:55.501Z,99.90
2022-09-09T02:29:33.044Z,99.90
2022-09-09T02:31:08.582Z,99.90
2022-09-09T02:32:50.814Z,99.90
2022-09-09T02:34:28.606Z,99.90
2022-09-09T02:36:04.540Z,99.90
2022-09-09T02:37:40.683Z,99.90
2022-09-09T02:39:14.439Z,99.90
2022-09-09T02:40:47.752Z,99.90
2022-09-09T02:42:20.908Z,99.90
2022-09-09T02:43:54.308Z,99.90
2022-09-09T02:45:33.594Z,99.90
2022-09-09T02:47:26.613Z,99.90
2022-09-09T02:49:04.488Z,99.90
2022-09-09T02:50:52.085Z,99.90
2022-09-09T02:52:34.269Z,99.90
2022-09-09T02:54:17.848Z,99.90
2022-09-09T02:55:56.764Z,99.90
2022-09-09T02:57:32.769Z,99.90
2022-09-09T02:59:06.577Z,99.90
2022-09-09T03:00:42.793Z,99.90
2022-09-09T03:02:17.314Z,99.90
2022-09-09T03:03:52.194Z,99.90
2022-09-09T03:05:25.311Z,99.90
2022-09-09T03:06:58.471Z,99.90
2022-09-09T03:08:31.550Z,99.90
2022-09-09T03:10:06.690Z,99.90
2022-09-09T03:11:40.413Z,99.90
2022-09-09T03:13:16.301Z,99.90
2022-09-09T03:14:49.617Z,99.90
2022-09-09T03:16:22.319Z,99.90
2022-09-09T03:17:59.047Z,99.90
2022-09-09T03:19:31.287Z,99.90
2022-09-09T03:21:04.374Z,99.90
2022-09-09T03:22:37.491Z,99.90
2022-09-09T03:24:10.712Z,99.90
2022-09-09T03:25:49.241Z,99.90
2022-09-09T03:27:24.697Z,99.90
2022-09-09T03:28:58.813Z,99.90
2022-09-09T03:30:31.997Z,99.90
2022-09-09T03:32:05.312Z,99.90
2022-09-09T03:33:40.138Z,99.90
2022-09-09T03:35:13.869Z,99.90
2022-09-09T03:36:47.481Z,99.90
2022-09-09T03:38:20.629Z,99.90
2022-09-09T03:39:53.838Z,99.90
2022-09-09T03:41:27.399Z,99.90
2022-09-09T03:43:00.518Z,99.90
2022-09-09T03:44:32.936Z,99.90
2022-09-09T03:46:06.343Z,99.90
2022-09-09T03:47:39.995Z,99.90
2022-09-09T03:49:14.900Z,99.90
2022-09-09T03:50:48.782Z,99.90
2022-09-09T03:52:23.829Z,99.90
2022-09-09T03:53:59.206Z,99.90
2022-09-09T03:55:33.927Z,99.90
2022-09-09T03:57:07.180Z,99.90
2022-09-09T03:58:39.592Z,99.90
2022-09-09T04:00:15.410Z,99.90
2022-09-09T04:01:58.183Z,99.90
2022-09-09T04:03:31.659Z,99.90
2022-09-09T04:05:07.939Z,99.90
2022-09-09T04:06:41.049Z,99.90
2022-09-09T04:08:13.081Z,99.90
2022-09-09T04:09:46.175Z,99.90
2022-09-09T04:11:21.162Z,99.90
2022-09-09T04:12:56.056Z,99.90
2022-09-09T04:14:29.977Z,99.90
2022-09-09T04:16:05.675Z,99.90
2022-09-09T04:17:40.777Z,99.90
2022-09-09T04:19:14.592Z,99.90
2022-09-09T04:20:51.141Z,99.90
2022-09-09T04:22:26.492Z,99.90
2022-09-09T04:24:00.908Z,99.90
2022-09-09T04:25:34.779Z,99.90
2022-09-09T04:27:07.927Z,99.90
2022-09-09T04:28:42.515Z,99.90
2022-09-09T04:30:22.984Z,99.90
2022-09-09T04:31:56.155Z,99.90
2022-09-09T04:33:28.519Z,99.90
2022-09-09T04:35:01.703Z,99.90
2022-09-09T04:36:36.642Z,99.90
2022-09-09T04:38:11.912Z,99.90
2022-09-09T04:39:46.208Z,99.90
2022-09-09T04:41:19.347Z,99.90
2022-09-09T04:42:56.064Z,99.90
2022-09-09T04:44:30.171Z,99.90
2022-09-09T04:46:03.648Z,99.90
2022-09-09T04:47:36.991Z,99.90
2022-09-09T04:49:14.903Z,99.90
2022-09-09T04:50:57.233Z,99.90
2022-09-09T04:52:31.795Z,99.90
2022-09-09T04:54:05.033Z,99.90
2022-09-09T04:55:37.132Z,99.90
2022-09-09T04:57:17.982Z,99.90
2022-09-09T04:58:51.952Z,99.90
2022-09-09T05:00:27.717Z,99.90
2022-09-09T05:02:02.266Z,99.90
2022-09-09T05:03:36.207Z,99.90
2022-09-09T05:05:12.206Z,99.90
2022-09-09T05:06:46.814Z,99.90
2022-09-09T05:08:21.871Z,99.90
2022-09-09T05:09:55.344Z,99.90
2022-09-09T05:11:29.805Z,99.90
2022-09-09T05:13:21.836Z,99.90
2022-09-09T05:14:55.143Z,99.90
2022-09-09T05:16:28.886Z,99.90
2022-09-09T05:18:03.555Z,99.90
2022-09-09T05:19:38.408Z,99.90
2022-09-09T05:21:12.071Z,99.90
2022-09-09T05:22:45.139Z,99.90
2022-09-09T05:24:19.868Z,99.90
2022-09-09T05:25:58.620Z,99.90
2022-09-09T05:27:32.660Z,99.90
2022-09-09T05:29:07.182Z,99.90
2022-09-09T05:30:40.275Z,99.90
2022-09-09T05:32:15.605Z,99.90
2022-09-09T05:33:51.267Z,99.90
2022-09-09T05:35:24.401Z,99.90
2022-09-09T05:36:57.624Z,99.90
2022-09-09T05:38:33.426Z,99.90
2022-09-09T05:40:09.444Z,99.90
2022-09-09T05:41:42.721Z,99.90
2022-09-09T05:43:16.180Z,99.90
2022-09-09T05:44:49.277Z,99.90
2022-09-09T05:46:24.919Z,99.90
2022-09-09T05:48:01.086Z,99.90
2022-09-09T05:49:34.163Z,99.90
2022-09-09T05:51:09.519Z,99.90
2022-09-09T05:52:42.545Z,99.90
2022-09-09T05:54:16.409Z,99.90
2022-09-09T05:56:01.343Z,99.90
2022-09-09T05:57:35.253Z,99.90
2022-09-09T05:59:08.503Z,99.90
2022-09-09T06:00:41.777Z,99.90
2022-09-09T06:02:15.496Z,99.90
2022-09-09T06:03:50.241Z,99.90
2022-09-09T06:05:23.816Z,99.90
2022-09-09T06:06:57.160Z,99.90
2022-09-09T06:08:30.469Z,99.90
2022-09-09T06:10:03.788Z,99.90
2022-09-09T06:11:40.400Z,99.90
2022-09-09T06:13:14.207Z,99.90
2022-09-09T06:14:47.510Z,99.90
2022-09-09T06:16:24.658Z,99.90
2022-09-09T06:17:57.799Z,99.90
2022-09-09T06:19:31.889Z,99.90
2022-09-09T06:21:08.109Z,99.90
2022-09-09T06:22:42.722Z,99.90
2022-09-09T06:24:18.329Z,99.90
2022-09-09T06:25:51.960Z,99.90
2022-09-09T06:27:26.836Z,99.90
2022-09-09T06:29:03.354Z,99.90
2022-09-09T06:30:37.189Z,99.90
2022-09-09T06:32:10.580Z,99.90
2022-09-09T06:33:44.382Z,99.90
2022-09-09T06:35:18.835Z,99.90
2022-09-09T06:36:52.967Z,99.90
2022-09-09T06:38:26.200Z,99.90
2022-09-09T06:40:00.427Z,99.90
2022-09-09T06:41:35.037Z,99.90
2022-09-09T06:43:11.215Z,99.90
2022-09-09T06:44:48.138Z,99.90
2022-09-09T06:46:34.094Z,99.90
2022-09-09T06:48:07.621Z,99.90
2022-09-09T06:49:40.852Z,99.90
2022-09-09T06:51:18.581Z,99.90
2022-09-09T06:52:52.680Z,99.90
2022-09-09T06:54:26.832Z,99.90
2022-09-09T06:56:01.043Z,99.90
2022-09-09T06:57:37.298Z,99.90
2022-09-09T06:59:14.839Z,99.90
2022-09-09T07:00:47.932Z,99.90
2022-09-09T07:02:21.095Z,99.90
2022-09-09T07:03:56.714Z,99.90
2022-09-09T07:05:29.978Z,99.90
2022-09-09T07:07:03.313Z,99.90
2022-09-09T07:08:36.539Z,99.90
2022-09-09T07:10:10.969Z,99.90
2022-09-09T07:11:45.976Z,99.90
2022-09-09T07:13:19.952Z,99.90
2022-09-09T07:14:54.354Z,99.90
2022-09-09T07:16:28.555Z,99.90
2022-09-09T07:18:04.294Z,99.90
2022-09-09T07:19:38.183Z,99.90
2022-09-09T07:21:13.953Z,99.90
2022-09-09T07:22:47.572Z,99.90
2022-09-09T07:24:21.331Z,99.90
2022-09-09T07:25:53.834Z,99.90
2022-09-09T07:27:27.721Z,99.90
2022-09-09T07:29:00.787Z,99.90
2022-09-09T07:30:35.242Z,99.90
2022-09-09T07:32:09.029Z,99.90
2022-09-09T07:33:45.064Z,99.90
2022-09-09T07:35:18.361Z,99.90
2022-09-09T07:36:51.892Z,99.90
2022-09-09T07:38:26.149Z,99.90
2022-09-09T07:39:59.868Z,99.90
2022-09-09T07:41:35.927Z,99.90
2022-09-09T07:43:09.646Z,99.90
2022-09-09T07:44:43.787Z,99.90
2022-09-09T07:46:25.964Z,99.90
2022-09-09T07:47:59.210Z,99.90
2022-09-09T07:49:33.132Z,99.90
2022-09-09T07:51:10.041Z,99.90
2022-09-09T07:52:43.375Z,99.90
2022-09-09T07:54:20.950Z,99.90
2022-09-09T07:55:56.836Z,99.90
2022-09-09T07:57:31.608Z,99.90
2022-09-09T07:59:05.601Z,99.90
2022-09-09T08:00:39.061Z,99.90
2022-09-09T08:02:13.520Z,99.90
2022-09-09T08:03:47.092Z,99.90
2022-09-09T08:05:20.128Z,99.90
2022-09-09T08:06:57.952Z,99.90
2022-09-09T08:08:32.228Z,99.90
2022-09-09T08:10:05.886Z,99.90
2022-09-09T08:11:42.642Z,98.50
2022-09-09T08:13:18.499Z,1.00
2022-09-09T08:14:55.508Z,1.00
2022-09-09T08:16:31.998Z,1.00
2022-09-09T08:18:07.876Z,55.00
2022-09-09T08:19:41.298Z,91.40
2022-09-09T08:21:22.256Z,26.40
2022-09-09T08:22:57.135Z,56.10
2022-09-09T08:24:30.414Z,78.70
2022-09-09T08:26:08.285Z,99.90
2022-09-09T08:27:41.365Z,99.90
2022-09-09T08:29:15.687Z,99.90
2022-09-09T08:30:49.137Z,99.90
2022-09-09T08:32:22.581Z,99.90
2022-09-09T08:33:58.146Z,99.90
2022-09-09T08:35:33.503Z,99.90
2022-09-09T08:37:06.657Z,99.90
2022-09-09T08:38:48.910Z,99.90
2022-09-09T08:40:28.729Z,99.90
2022-09-09T08:42:26.179Z,99.90
2022-09-09T08:44:08.881Z,99.90
2022-09-09T08:45:51.596Z,99.90
2022-09-09T08:47:34.275Z,99.90
2022-09-09T08:49:21.893Z,99.90
2022-09-09T08:51:02.785Z,99.90
2022-09-09T08:52:41.597Z,99.90
2022-09-09T08:54:25.651Z,99.90
2022-09-09T08:56:14.864Z,99.90
2022-09-09T08:58:01.931Z,99.90
2022-09-09T08:59:35.584Z,99.90
2022-09-09T09:01:37.867Z,99.90
2022-09-09T09:03:24.751Z,99.90
2022-09-09T09:05:21.185Z,99.90
2022-09-09T09:07:11.209Z,99.90
2022-09-09T09:08:52.426Z,99.90
2022-09-09T09:10:42.090Z,99.90
2022-09-09T09:12:21.475Z,99.90
2022-09-09T09:14:00.007Z,99.90
2022-09-09T09:15:38.949Z,99.90
2022-09-09T09:17:16.576Z,99.90
2022-09-09T09:18:50.441Z,99.90
2022-09-09T09:20:35.964Z,99.90
2022-09-09T09:22:18.025Z,99.90
2022-09-09T09:23:58.489Z,99.90
2022-09-09T09:25:39.957Z,99.90
2022-09-09T09:27:16.097Z,99.90
2022-09-09T09:28:58.433Z,99.90
2022-09-09T09:30:37.623Z,99.90
2022-09-09T09:32:18.425Z,99.90
2022-09-09T09:33:54.039Z,99.90
2022-09-09T09:35:31.179Z,99.90
2022-09-09T09:37:13.522Z,99.90
2022-09-09T09:40:56.866Z,99.90
2022-09-09T09:42:31.162Z,99.90
2022-09-09T09:44:05.673Z,99.90
2022-09-09T09:45:55.173Z,99.90
2022-09-09T09:47:34.344Z,99.90
2022-09-09T09:49:19.360Z,99.90
2022-09-09T09:50:56.497Z,99.90
2022-09-09T09:52:31.207Z,99.90
2022-09-09T09:54:28.578Z,99.90
2022-09-09T09:56:07.971Z,99.90
2022-09-09T09:57:41.157Z,99.90
2022-09-09T09:59:38.687Z,99.90
2022-09-09T10:01:25.352Z,99.90
2022-09-09T10:02:58.458Z,99.90
2022-09-09T10:04:34.728Z,99.90
2022-09-09T10:06:09.598Z,99.90
2022-09-09T10:07:44.619Z,99.90
2022-09-09T10:09:24.903Z,99.90
2022-09-09T10:11:24.565Z,99.90
2022-09-09T10:13:07.772Z,99.90
2022-09-09T10:14:50.687Z,20.60
2022-09-09T10:16:37.470Z,1.00
2022-09-09T10:18:35.100Z,1.00
2022-09-09T10:20:30.118Z,1.00
2022-09-09T10:22:16.304Z,1.00
2022-09-09T10:24:03.301Z,1.00
2022-09-09T10:25:47.518Z,1.00
2022-09-09T10:27:24.594Z,1.00
2022-09-09T10:29:17.910Z,1.00
2022-09-09T10:31:01.355Z,1.00
2022-09-09T10:32:40.282Z,1.00
2022-09-09T10:34:31.537Z,1.00
2022-09-09T10:36:14.566Z,69.00
2022-09-09T10:38:20.515Z,99.90
2022-09-09T10:40:01.984Z,99.90
2022-09-09T10:41:47.295Z,99.90
2022-09-09T10:43:32.131Z,81.50
2022-09-09T10:45:18.647Z,99.90
2022-09-09T10:47:08.643Z,1.00
2022-09-09T10:48:55.378Z,1.00
2022-09-09T10:51:03.343Z,1.00
2022-09-09T10:52:43.182Z,1.00
2022-09-09T10:54:47.689Z,1.00
2022-09-09T10:56:24.885Z,61.60
2022-09-09T10:58:00.626Z,1.00
2022-09-09T10:59:38.993Z,1.00
2022-09-09T11:01:18.060Z,1.00
2022-09-09T11:02:56.997Z,1.00
2022-09-09T11:04:35.897Z,1.00
2022-09-09T11:06:15.808Z,1.00
2022-09-09T11:07:53.838Z,1.00
2022-09-09T11:09:30.917Z,1.00
2022-09-09T11:11:12.929Z,1.00
2022-09-09T11:12:50.201Z,1.00
2022-09-09T11:14:34.038Z,1.00
2022-09-09T11:16:21.790Z,40.70
2022-09-09T11:17:58.712Z,99.90
2022-09-09T11:19:36.290Z,99.90
2022-09-09T11:21:20.931Z,99.90
2022-09-09T11:23:02.677Z,67.80
2022-09-09T11:24:41.633Z,1.00
2022-09-09T11:26:23.221Z,1.00
2022-09-09T11:28:12.677Z,1.00
2022-09-09T11:30:37.828Z,1.00
2022-09-09T11:32:25.201Z,1.00
2022-09-09T11:34:11.742Z,1.00
2022-09-09T11:36:05.905Z,1.00
2022-09-09T11:38:19.688Z,1.00
2022-09-09T11:40:16.015Z,1.00
2022-09-09T11:41:50.495Z,49.30
2022-09-09T11:43:29.052Z,84.50
2022-09-09T11:45:12.201Z,92.60
2022-09-09T11:46:54.046Z,91.70
2022-09-09T11:48:38.515Z,92.10
2022-09-09T11:50:29.043Z,68.60
2022-09-09T11:52:13.740Z,77.90
2022-09-09T11:53:54.098Z,77.50
2022-09-09T11:55:28.312Z,66.80
2022-09-09T11:57:05.696Z,66.70
2022-09-09T11:58:46.663Z,70.60
2022-09-09T12:00:38.011Z,72.20
2022-09-09T12:02:18.311Z,68.60
2022-09-09T12:03:54.119Z,1.00
2022-09-09T12:05:40.621Z,1.00
2022-09-09T12:07:31.837Z,1.00
2022-09-09T12:09:11.994Z,1.00
2022-09-09T12:10:55.882Z,1.00
2022-09-09T12:12:35.338Z,41.40
2022-09-09T12:14:22.177Z,32.20
2022-09-09T12:15:57.086Z,51.10
2022-09-09T12:17:32.416Z,53.40
2022-09-09T12:19:08.102Z,56.40
2022-09-09T12:20:52.953Z,55.20
2022-09-09T12:22:35.306Z,54.40
2022-09-09T12:24:11.390Z,57.10
2022-09-09T12:26:13.320Z,56.50
2022-09-09T12:28:01.671Z,64.40
2022-09-09T12:29:45.058Z,66.70
2022-09-09T12:31:25.884Z,65.80
2022-09-09T12:33:03.861Z,61.60
2022-09-09T12:34:42.201Z,54.30
2022-09-09T12:36:17.787Z,39.50
2022-09-09T12:37:54.955Z,1.00
2022-09-09T12:39:35.128Z,1.00
2022-09-09T12:41:08.377Z,1.00
2022-09-09T12:42:42.649Z,1.00
2022-09-09T12:44:17.032Z,1.00
2022-09-09T12:45:57.530Z,1.00
2022-09-09T12:47:44.553Z,1.00
2022-09-09T12:49:30.389Z,1.00
2022-09-09T12:51:04.333Z,16.60
2022-09-09T12:52:40.000Z,1.00
2022-09-09T12:54:16.505Z,1.00
2022-09-09T12:55:53.304Z,1.00
2022-09-09T12:57:28.484Z,1.00
2022-09-09T12:59:02.185Z,1.00
2022-09-09T13:00:37.151Z,1.00
2022-09-09T13:02:21.090Z,1.00
2022-09-09T13:03:54.820Z,1.00
2022-09-09T13:05:29.541Z,1.00
2022-09-09T13:07:11.081Z,1.00
2022-09-09T13:08:44.617Z,1.00
2022-09-09T13:10:36.232Z,93.30
2022-09-09T13:12:20.245Z,99.10
2022-09-09T13:13:54.951Z,99.00
2022-09-09T13:15:31.489Z,99.90
2022-09-09T13:17:08.201Z,99.90
2022-09-09T13:18:43.156Z,99.90
2022-09-09T13:20:19.889Z,99.90
2022-09-09T13:21:53.763Z,99.90
2022-09-09T13:23:30.271Z,99.90
2022-09-09T13:25:07.585Z,99.90
2022-09-09T13:26:40.639Z,99.90
2022-09-09T13:28:23.728Z,99.90
2022-09-09T13:29:57.725Z,94.30
2022-09-09T13:31:33.678Z,5.80
2022-09-09T13:33:24.796Z,1.00
2022-09-09T13:35:00.313Z,3.40
2022-09-09T13:36:35.766Z,7.30
2022-09-09T13:38:10.017Z,52.70
2022-09-09T13:39:53.221Z,92.10
2022-09-09T13:41:31.299Z,95.50
2022-09-09T13:43:04.765Z,98.40
2022-09-09T13:44:42.097Z,99.00
2022-09-09T13:46:31.127Z,99.90
2022-09-09T13:48:14.559Z,99.90
2022-09-09T13:49:49.211Z,99.90
2022-09-09T13:51:32.549Z,99.90
2022-09-09T13:53:05.963Z,99.90
2022-09-09T13:54:39.414Z,99.90
2022-09-09T13:56:12.440Z,99.70
2022-09-09T13:57:53.784Z,95.90
2022-09-09T13:59:38.063Z,83.60
2022-09-09T14:01:20.014Z,81.30
2022-09-09T14:02:53.484Z,31.40
2022-09-09T14:04:26.550Z,32.40
2022-09-09T14:06:02.304Z,33.20
2022-09-09T14:07:35.359Z,22.70
2022-09-09T14:09:09.525Z,11.30
2022-09-09T14:10:42.751Z,2.70
2022-09-09T14:12:16.742Z,2.40
2022-09-09T14:13:50.860Z,3.30
2022-09-09T14:15:23.901Z,3.00
2022-09-09T14:16:56.952Z,1.70
2022-09-09T14:18:30.304Z,6.30
2022-09-09T14:20:04.182Z,2.00
2022-09-09T14:21:38.628Z,1.00
2022-09-09T14:23:14.200Z,1.00
2022-09-09T14:24:47.574Z,1.00
2022-09-09T14:26:22.072Z,1.00
2022-09-09T14:27:55.126Z,1.00
2022-09-09T14:29:28.195Z,1.00
2022-09-09T14:31:02.754Z,13.30
2022-09-09T14:32:35.991Z,11.70
2022-09-09T14:34:10.597Z,19.40
2022-09-09T14:35:45.338Z,18.40
2022-09-09T14:37:21.556Z,14.80
2022-09-09T14:38:54.619Z,18.40
2022-09-09T14:40:27.633Z,26.20
2022-09-09T14:42:00.825Z,26.90
2022-09-09T14:43:34.148Z,37.80
2022-09-09T14:45:08.837Z,99.90
2022-09-09T14:46:43.381Z,99.90
2022-09-09T14:48:16.904Z,99.90
2022-09-09T14:49:50.612Z,99.90
2022-09-09T14:51:25.252Z,99.90
2022-09-09T14:52:59.876Z,99.90
2022-09-09T14:54:33.057Z,99.90
2022-09-09T14:56:07.661Z,99.90
2022-09-09T14:57:41.172Z,99.90
2022-09-09T14:59:14.209Z,99.90
2022-09-09T15:00:47.420Z,99.90
2022-09-09T15:02:20.472Z,99.90
2022-09-09T15:03:55.157Z,99.90
2022-09-09T15:05:29.157Z,99.90
2022-09-09T15:07:02.663Z,99.90
2022-09-09T15:08:41.773Z,99.90
2022-09-09T15:10:16.053Z,99.90
2022-09-09T15:11:49.190Z,99.90
2022-09-09T15:13:22.433Z,99.90
2022-09-09T15:14:55.975Z,99.90
2022-09-09T15:16:30.342Z,99.90
2022-09-09T15:18:03.397Z,99.90
2022-09-09T15:19:37.592Z,99.90
2022-09-09T15:21:11.257Z,99.90
2022-09-09T15:22:44.377Z,99.90
2022-09-09T15:24:18.766Z,99.90
2022-09-09T15:25:56.088Z,99.90
2022-09-09T15:27:30.005Z,99.90
2022-09-09T15:29:03.255Z,99.90
2022-09-09T15:30:36.288Z,99.90
2022-09-09T15:32:09.409Z,99.90
2022-09-09T15:33:44.200Z,99.90
2022-09-09T15:35:17.454Z,99.90
2022-09-09T15:36:50.781Z,99.90
2022-09-09T15:38:24.067Z,99.90
2022-09-09T15:39:59.814Z,99.90
2022-09-09T15:41:33.643Z,99.90
2022-09-09T15:43:07.493Z,99.90
2022-09-09T15:44:43.224Z,99.90
2022-09-09T15:46:38.195Z,99.90
2022-09-09T15:48:11.281Z,99.90
2022-09-09T15:49:44.590Z,99.90
2022-09-09T15:51:38.018Z,99.90
2022-09-09T15:53:09.891Z,99.90
2022-09-09T15:54:44.072Z,99.90
2022-09-09T15:56:17.504Z,99.90
2022-09-09T15:57:50.565Z,99.90
2022-09-09T15:59:23.895Z,99.90
2022-09-09T16:00:57.589Z,99.90
2022-09-09T16:02:31.707Z,99.90
2022-09-09T16:04:05.208Z,99.90
2022-09-09T16:05:38.232Z,99.90
2022-09-09T16:07:11.410Z,99.90
2022-09-09T16:08:45.243Z,99.90
2022-09-09T16:10:18.902Z,99.90
2022-09-09T16:11:54.194Z,99.90
2022-09-09T16:13:26.265Z,99.90
2022-09-09T16:15:00.572Z,99.90
2022-09-09T16:16:33.966Z,99.90
2022-09-09T16:18:07.176Z,99.90
2022-09-09T16:19:40.586Z,99.90
2022-09-09T16:21:16.039Z,99.90
2022-09-09T16:22:49.111Z,99.90
2022-09-09T16:24:23.229Z,99.90
2022-09-09T16:25:55.945Z,99.90
2022-09-09T16:27:30.341Z,99.90
2022-09-09T16:29:03.784Z,99.90
2022-09-09T16:30:39.672Z,99.90
2022-09-09T16:32:12.946Z,99.90
2022-09-09T16:33:45.598Z,99.90
2022-09-09T16:35:20.436Z,99.90
2022-09-09T16:36:53.504Z,99.90
2022-09-09T16:38:25.548Z,99.90
2022-09-09T16:39:58.636Z,99.90
2022-09-09T16:41:31.461Z,99.90
2022-09-09T16:43:07.279Z,99.90
2022-09-09T16:44:40.523Z,99.90
2022-09-09T16:46:16.410Z,99.90
2022-09-09T16:47:49.810Z,99.90
2022-09-09T16:49:22.955Z,99.90
2022-09-09T16:51:03.601Z,99.90
2022-09-09T16:52:36.633Z,99.90
2022-09-09T16:54:10.871Z,99.90
2022-09-09T16:55:45.250Z,99.90
2022-09-09T16:57:18.351Z,99.90
2022-09-09T16:58:53.367Z,99.90
2022-09-09T17:00:28.013Z,99.90
2022-09-09T17:02:01.469Z,99.90
2022-09-09T17:03:34.892Z,99.90
2022-09-09T17:05:08.268Z,99.90
2022-09-09T17:06:42.350Z,99.90
2022-09-09T17:08:16.292Z,99.90
2022-09-09T17:09:49.504Z,99.90
2022-09-09T17:11:21.793Z,99.90
2022-09-09T17:12:55.152Z,99.90
2022-09-09T17:14:32.043Z,99.90
2022-09-09T17:16:06.665Z,99.90
2022-09-09T17:17:40.007Z,99.90
2022-09-09T17:19:13.752Z,99.90
2022-09-09T17:20:47.953Z,99.90
2022-09-09T17:22:22.210Z,99.90
2022-09-09T17:23:56.115Z,99.90
2022-09-09T17:25:29.168Z,99.90
2022-09-09T17:27:02.290Z,99.90
2022-09-09T17:28:36.578Z,99.90
2022-09-09T17:30:12.673Z,99.90
2022-09-09T17:31:45.807Z,99.90
2022-09-09T17:33:18.819Z,99.90
2022-09-09T17:34:52.047Z,99.90
2022-09-09T17:36:26.996Z,99.90
2022-09-09T17:38:00.144Z,99.90
2022-09-09T17:39:33.224Z,99.90
2022-09-09T17:41:08.060Z,99.90
2022-09-09T17:42:41.529Z,99.90
2022-09-09T17:44:14.672Z,99.90
2022-09-09T17:45:49.591Z,99.90
2022-09-09T17:47:23.211Z,99.90
2022-09-09T17:48:59.603Z,99.90
2022-09-09T17:50:34.686Z,99.90
2022-09-09T17:52:07.883Z,99.90
2022-09-09T17:53:42.681Z,99.90
2022-09-09T17:55:16.678Z,99.90
2022-09-09T17:56:50.719Z,99.90
2022-09-09T17:58:24.451Z,99.90
2022-09-09T17:59:57.592Z,99.90
2022-09-09T18:01:34.213Z,99.90
2022-09-09T18:03:07.419Z,99.90
2022-09-09T18:04:40.469Z,99.90
2022-09-09T18:06:16.182Z,99.90
2022-09-09T18:07:49.535Z,99.90
2022-09-09T18:09:25.247Z,99.90
2022-09-09T18:10:58.297Z,99.90
2022-09-09T18:12:31.907Z,99.90
2022-09-09T18:14:06.857Z,99.90
2022-09-09T18:15:49.192Z,99.90
2022-09-09T18:17:25.396Z,99.90
2022-09-09T18:18:59.529Z,99.90
2022-09-09T18:20:32.534Z,99.90
2022-09-09T18:22:06.928Z,99.90
2022-09-09T18:23:42.773Z,99.90
2022-09-09T18:25:16.008Z,99.90
2022-09-09T18:26:49.894Z,99.90
2022-09-09T18:28:25.109Z,99.90
2022-09-09T18:29:58.287Z,99.90
2022-09-09T18:31:32.350Z,99.90
2022-09-09T18:33:06.844Z,99.90
2022-09-09T18:34:40.060Z,99.90
2022-09-09T18:36:16.270Z,99.90
2022-09-09T18:37:49.749Z,99.90
2022-09-09T18:39:25.275Z,99.90
2022-09-09T18:40:59.197Z,99.90
2022-09-09T18:42:32.398Z,99.90
2022-09-09T18:44:08.239Z,99.90
2022-09-09T18:45:41.330Z,99.90
2022-09-09T18:47:14.398Z,99.90
2022-09-09T18:48:50.470Z,99.90
2022-09-09T18:50:23.561Z,99.90
2022-09-09T18:51:56.953Z,99.90
2022-09-09T18:53:30.033Z,99.90
2022-09-09T18:55:03.059Z,99.90
2022-09-09T18:56:36.648Z,99.90
2022-09-09T18:58:09.678Z,99.90
2022-09-09T18:59:43.113Z,99.90
2022-09-09T19:01:16.181Z,99.90
2022-09-09T19:02:51.306Z,99.90
2022-09-09T19:04:27.240Z,99.90
2022-09-09T19:06:01.719Z,99.90
2022-09-09T19:07:34.790Z,99.90
2022-09-09T19:09:11.084Z,99.90
2022-09-09T19:10:44.907Z,99.90
2022-09-09T19:12:18.228Z,99.90
2022-09-09T19:13:52.340Z,99.90
2022-09-09T19:15:25.560Z,99.90
2022-09-09T19:16:59.048Z,99.90
2022-09-09T19:18:32.361Z,99.90
2022-09-09T19:20:09.143Z,99.90
2022-09-09T19:21:43.669Z,99.90
2022-09-09T19:23:16.718Z,99.90
2022-09-09T19:24:50.152Z,99.90
2022-09-09T19:26:23.532Z,99.90
2022-09-09T19:27:56.586Z,99.90
2022-09-09T19:29:31.933Z,99.90
2022-09-09T19:31:06.254Z,99.90
2022-09-09T19:32:54.876Z,99.90
2022-09-09T19:34:28.034Z,99.90
2022-09-09T19:36:04.963Z,99.90
2022-09-09T19:37:38.368Z,99.90
2022-09-09T19:39:11.810Z,99.90
2022-09-09T19:40:44.913Z,99.90
2022-09-09T19:42:18.026Z,99.90
2022-09-09T19:43:52.247Z,99.90
2022-09-09T19:45:25.339Z,99.90
2022-09-09T19:46:59.579Z,99.90
2022-09-09T19:48:33.436Z,99.90
2022-09-09T19:50:07.342Z,99.90
2022-09-09T19:51:41.786Z,99.90
2022-09-09T19:53:14.839Z,99.90
2022-09-09T19:54:47.958Z,99.90
2022-09-09T19:56:23.113Z,99.90
2022-09-09T19:57:56.174Z,99.90
2022-09-09T19:59:29.548Z,99.90
2022-09-09T20:01:10.593Z,99.90
2022-09-09T20:02:58.092Z,99.90
2022-09-09T20:04:38.756Z,99.90
2022-09-09T20:06:13.240Z,99.90
2022-09-09T20:07:48.266Z,99.90
2022-09-09T20:09:22.733Z,99.90
2022-09-09T20:10:56.294Z,99.90
2022-09-09T20:12:29.384Z,99.90
2022-09-09T20:14:03.477Z,99.90
2022-09-09T20:15:36.549Z,99.90
2022-09-09T20:17:10.141Z,99.90
2022-09-09T20:18:45.515Z,99.90
2022-09-09T20:20:19.753Z,99.90
2022-09-09T20:21:52.791Z,99.90
2022-09-09T20:23:27.566Z,99.90
2022-09-09T20:25:01.292Z,99.90
2022-09-09T20:26:37.566Z,99.90
2022-09-09T20:28:10.779Z,99.90
2022-09-09T20:29:44.447Z,99.90
2022-09-09T20:31:19.987Z,99.90
2022-09-09T20:32:53.585Z,99.90
2022-09-09T20:34:28.110Z,99.90
2022-09-09T20:36:05.092Z,99.90
2022-09-09T20:37:38.471Z,99.90
2022-09-09T20:39:14.891Z,99.90
2022-09-09T20:40:48.708Z,99.90
2022-09-09T20:42:21.708Z,99.90
2022-09-09T20:43:56.248Z,99.90
2022-09-09T20:45:29.392Z,99.90
2022-09-09T20:47:06.444Z,99.90
2022-09-09T20:48:39.020Z,99.90
2022-09-09T20:50:13.268Z,99.90
2022-09-09T20:51:48.072Z,99.90
2022-09-09T20:53:21.337Z,99.90
2022-09-09T20:54:55.994Z,99.90
2022-09-09T20:56:34.045Z,99.90
2022-09-09T20:58:07.635Z,99.90
2022-09-09T20:59:41.837Z,99.90